Airfield :
LOGIN :

Register | Disclaimer

   EN    FR    IT 

 










Legend :    VFR   Marginal VFR   IFR   Intensive IFR   Very Intensive IFR
Visi :
Ceiling :
>= 8 km
>= 3000ft
5 to 8 km
1000 to 3000 ft
1500m to 5 km
500 to 1000 ft
800 to 1500m
200 to 500 ft
< 800m
< 200 ft
Symbols :   Thunderstorms  Fog  Heavy snow  Heavy precipitations  Wind > 20 kt
SIGMETs :     Misc.  Thunderstorms  Icing  Turbulence  Mountain Waves  Volcanic Ashes






- Airport Elevation : 340 ft
- IATA code : BZI


LTBF - Balikesir

CURRENT METAR :
  • 271650Z 23010KT 9999 -SHRA SCT035 BKN100 15/09 Q1007 RETSRA NOSIG

EXPIRED METARs :
  • 271636Z 22011KT 180V260 9999 -SHRA SCT035 BKN100 17/08 Q1006 RETSRA NOSIG RMK RWY18 23011KT 180V290
  • 271625Z 20012KT 9999 -TSRA SCT025CB SCT035 18/07 Q1006 BECMG TL1640 NSW
  • 271550Z 19014KT 9999 SCT035 BKN100 18/07 Q1006 NOSIG
  • 271450Z 20018KT 9999 SCT035 BKN100 19/06 Q1006 NOSIG

TAF TAF LTBF
Valid from the 27 at 15:00 until the 28 at 00:00 UTC


271340Z 2715/2724 20015G30KT 9999 SCT035 BKN100
TEMPO 2715/2718 -SHRA



MET'MAP, your aeronautical weather chart ! - Copyright ORBIFLY December 2007 - Disclaimer

ORBIFLY MET'MAP TEAM :

Programming & Development : Alexandra Zaïnal
Concept & original design : Baudouin d'Aumeries
Assistance for programming : Marc-Olivier Méhu
Technical & hardware support : Manuel Goepfert

Contact : metmap@orbifly.com




SOURCES & CREDITS :

   NOAA